Aérodrome :
LOGIN :

S'inscrire | Disclaimer

   EN    FR    IT 

 










Légende :    VFR   VFR Marginal   IFR   IFR Intensif   IFR Très Intensif
Visi : 
Plafond : 
>= 8 km
>= 3000ft
5 à 8 km
1000 à 3000 ft
1500m à 5 km
500 à 1000 ft
800 à 1500m
200 à 500 ft
< 800m
< 200 ft
Symboles :   Orages  Brouillard  Fortes neiges  Fortes précipitations  Vent > 20 kt
SIGMETs :   Divers  Orages  Givrage  Turbulence  Onde Orograph.  Cendres Volcan.







- Altitude de l'aérodrome : 1036 ft
- Code IATA : ERF


EDDE - Erfurt

DERNIER METAR :
  • 201420Z 27009KT 9999 FEW033 BKN065 BKN080 13/09 Q1020 NOSIG

METARs EXPIRÉS :
  • 201350Z 28008KT 9999 FEW033 SCT060 BKN080 13/08 Q1020 NOSIG
  • 201320Z 27012KT 9999 FEW033 BKN060 BKN100 13/07 Q1020 NOSIG
  • 201250Z 28011KT 260V320 9999 FEW033 BKN060 BKN100 13/08 Q1020 NOSIG
  • 201220Z 28011KT 9999 SCT030 SCT060 BKN100 13/08 Q1020 NOSIG
  • 201150Z 28008KT 9999 -SHRA BKN030 SCT100 14/08 Q1020 NOSIG

TAF TAF EDDE
Valide du 20 à 12h jusqu'au 21 à 12h UTC


201100Z 2012/2112 25006KT 9999 SCT045
BECMG 2100/2103 4500 BR
PROB30
TEMPO 2104/2106 0700 FG
BECMG 2106/2109 8000
Pas de NOTAMs connus pour ce terrain.



MET'MAP, la Météo Aéronautique d'un coup d'oeil ! - Copyright ORBIFLY Décembre 2007 - Disclaimer

ORBIFLY MET'MAP TEAM :

Programmation & Développement : Alexandra Zaïnal
Conception & Développement : Baudouin d'Aumeries
Co-Programmation & Développement : Marc-Olivier Méhu
Soutien technique & logistique : Manuel Goepfert

Contact : metmap@orbifly.com




SOURCES & CREDITS :

   NOAA